sensor_id;sensor_type;location;lat;lon;timestamp;pressure;altitude;pressure_sealevel;temperature;humidity
38852;BME280;24605;50.092;9.182;2023-04-05T00:01:54;98572.25;;;1.14;66.30
38852;BME280;24605;50.092;9.182;2023-04-05T00:04:21;98566.88;;;1.02;68.06
38852;BME280;24605;50.092;9.182;2023-04-05T00:06:48;98569.09;;;0.94;68.88
38852;BME280;24605;50.092;9.182;2023-04-05T00:09:17;98565.47;;;1.11;68.59
38852;BME280;24605;50.092;9.182;2023-04-05T00:11:45;98554.22;;;1.12;67.08
38852;BME280;24605;50.092;9.182;2023-04-05T00:14:11;98549.44;;;1.06;67.84
38852;BME280;24605;50.092;9.182;2023-04-05T00:16:39;98559.31;;;0.85;68.37
38852;BME280;24605;50.092;9.182;2023-04-05T00:19:06;98537.75;;;0.71;68.56
38852;BME280;24605;50.092;9.182;2023-04-05T00:21:33;98548.44;;;0.65;69.39
38852;BME280;24605;50.092;9.182;2023-04-05T00:23:59;98551.03;;;0.65;70.26
38852;BME280;24605;50.092;9.182;2023-04-05T00:26:26;98555.78;;;0.42;71.76
38852;BME280;24605;50.092;9.182;2023-04-05T00:28:52;98540.00;;;0.33;72.41
38852;BME280;24605;50.092;9.182;2023-04-05T00:31:19;98547.22;;;0.42;71.05
38852;BME280;24605;50.092;9.182;2023-04-05T00:33:47;98537.25;;;0.36;71.16
38852;BME280;24605;50.092;9.182;2023-04-05T00:36:14;98546.56;;;0.38;70.93
38852;BME280;24605;50.092;9.182;2023-04-05T00:38:42;98470.31;;;-0.41;72.01
38852;BME280;24605;50.092;9.182;2023-04-05T00:41:09;98545.13;;;0.04;72.29
38852;BME280;24605;50.092;9.182;2023-04-05T00:43:36;98511.06;;;-0.18;73.00
38852;BME280;24605;50.092;9.182;2023-04-05T00:46:03;98542.09;;;0.11;72.23
38852;BME280;24605;50.092;9.182;2023-04-05T00:48:31;98541.31;;;-0.21;74.58
38852;BME280;24605;50.092;9.182;2023-04-05T00:50:59;98544.41;;;-0.30;74.82
38852;BME280;24605;50.092;9.182;2023-04-05T00:53:26;98543.53;;;-0.45;76.40
38852;BME280;24605;50.092;9.182;2023-04-05T00:55:53;98530.75;;;-0.63;77.54
38852;BME280;24605;50.092;9.182;2023-04-05T00:58:20;98537.22;;;-0.72;77.99
38852;BME280;24605;50.092;9.182;2023-04-05T01:00:54;98538.69;;;-0.52;78.07
38852;BME280;24605;50.092;9.182;2023-04-05T01:03:26;98536.72;;;-0.46;76.15
38852;BME280;24605;50.092;9.182;2023-04-05T01:06:08;98505.59;;;-0.27;73.25
38852;BME280;24605;50.092;9.182;2023-04-05T01:08:44;98519.84;;;-0.52;75.28
38852;BME280;24605;50.092;9.182;2023-04-05T01:11:14;98524.16;;;-0.53;75.84
38852;BME280;24605;50.092;9.182;2023-04-05T01:13:44;98516.72;;;-0.73;77.05
38852;BME280;24605;50.092;9.182;2023-04-05T01:16:10;98522.09;;;-0.46;75.87
38852;BME280;24605;50.092;9.182;2023-04-05T01:18:37;98522.28;;;-0.65;76.95
38852;BME280;24605;50.092;9.182;2023-04-05T01:24:11;98510.41;;;-0.84;77.32
38852;BME280;24605;50.092;9.182;2023-04-05T01:26:56;98493.78;;;-0.94;77.22
38852;BME280;24605;50.092;9.182;2023-04-05T01:29:44;98509.97;;;-0.92;77.71
38852;BME280;24605;50.092;9.182;2023-04-05T01:32:19;98509.66;;;-1.02;79.07
38852;BME280;24605;50.092;9.182;2023-04-05T01:34:54;98511.88;;;-0.96;79.32
38852;BME280;24605;50.092;9.182;2023-04-05T01:37:26;98509.63;;;-0.86;79.18
38852;BME280;24605;50.092;9.182;2023-04-05T01:39:55;98484.00;;;-0.71;77.21
38852;BME280;24605;50.092;9.182;2023-04-05T01:42:24;98498.34;;;-0.51;76.38
38852;BME280;24605;50.092;9.182;2023-04-05T01:44:53;98502.41;;;-0.47;75.94
38852;BME280;24605;50.092;9.182;2023-04-05T01:47:20;98483.97;;;-0.55;75.83
38852;BME280;24605;50.092;9.182;2023-04-05T01:49:46;98477.69;;;-0.82;76.80
38852;BME280;24605;50.092;9.182;2023-04-05T01:52:13;98503.50;;;-0.67;76.75
38852;BME280;24605;50.092;9.182;2023-04-05T01:54:39;98491.38;;;-0.81;77.48
38852;BME280;24605;50.092;9.182;2023-04-05T01:57:06;98504.66;;;-0.57;77.05
38852;BME280;24605;50.092;9.182;2023-04-05T01:59:32;98504.31;;;-0.51;76.02
38852;BME280;24605;50.092;9.182;2023-04-05T02:02:00;98503.25;;;-0.63;76.23
38852;BME280;24605;50.092;9.182;2023-04-05T02:04:27;98498.84;;;-0.60;76.12
38852;BME280;24605;50.092;9.182;2023-04-05T02:06:53;98493.69;;;-0.76;76.49
38852;BME280;24605;50.092;9.182;2023-04-05T02:09:20;98482.41;;;-1.06;77.85
38852;BME280;24605;50.092;9.182;2023-04-05T02:11:46;98493.13;;;-0.82;77.18
38852;BME280;24605;50.092;9.182;2023-04-05T02:14:13;98505.16;;;-0.66;75.73
38852;BME280;24605;50.092;9.182;2023-04-05T02:16:39;98497.13;;;-0.92;76.92
38852;BME280;24605;50.092;9.182;2023-04-05T02:19:08;98497.28;;;-1.11;77.53
38852;BME280;24605;50.092;9.182;2023-04-05T02:21:35;98498.66;;;-1.05;77.66
38852;BME280;24605;50.092;9.182;2023-04-05T02:24:01;98489.88;;;-1.01;76.98
38852;BME280;24605;50.092;9.182;2023-04-05T02:26:28;98494.69;;;-0.95;76.36
38852;BME280;24605;50.092;9.182;2023-04-05T02:28:54;98494.78;;;-0.97;76.32
38852;BME280;24605;50.092;9.182;2023-04-05T02:31:21;98486.97;;;-0.95;76.45
38852;BME280;24605;50.092;9.182;2023-04-05T02:33:47;98487.56;;;-0.90;76.44
38852;BME280;24605;50.092;9.182;2023-04-05T02:36:15;98488.38;;;-0.89;76.24
38852;BME280;24605;50.092;9.182;2023-04-05T02:38:42;98488.38;;;-1.05;77.18
38852;BME280;24605;50.092;9.182;2023-04-05T02:41:09;98478.59;;;-0.99;76.84
38852;BME280;24605;50.092;9.182;2023-04-05T02:43:36;98473.53;;;-1.00;76.43
38852;BME280;24605;50.092;9.182;2023-04-05T02:46:03;98483.84;;;-1.00;76.60
38852;BME280;24605;50.092;9.182;2023-04-05T02:48:30;98483.25;;;-0.89;76.00
38852;BME280;24605;50.092;9.182;2023-04-05T02:50:56;98458.34;;;-1.05;76.35
38852;BME280;24605;50.092;9.182;2023-04-05T02:53:24;98483.50;;;-0.94;76.01
38852;BME280;24605;50.092;9.182;2023-04-05T02:55:51;98480.09;;;-0.95;75.71
38852;BME280;24605;50.092;9.182;2023-04-05T02:58:18;98486.16;;;-0.96;75.64
38852;BME280;24605;50.092;9.182;2023-04-05T03:00:45;98478.94;;;-0.89;75.74
38852;BME280;24605;50.092;9.182;2023-04-05T03:03:15;98460.69;;;-1.00;75.38
38852;BME280;24605;50.092;9.182;2023-04-05T03:05:41;98487.63;;;-0.91;75.27
38852;BME280;24605;50.092;9.182;2023-04-05T03:08:08;98487.47;;;-1.04;76.44
38852;BME280;24605;50.092;9.182;2023-04-05T03:10:46;98485.47;;;-1.15;77.00
38852;BME280;24605;50.092;9.182;2023-04-05T03:13:13;98482.00;;;-1.14;76.85
38852;BME280;24605;50.092;9.182;2023-04-05T03:15:40;98486.06;;;-1.26;77.94
38852;BME280;24605;50.092;9.182;2023-04-05T03:18:07;98466.38;;;-1.27;77.59
38852;BME280;24605;50.092;9.182;2023-04-05T03:20:34;98479.41;;;-1.14;77.58
38852;BME280;24605;50.092;9.182;2023-04-05T03:23:04;98456.19;;;-1.13;76.59
38852;BME280;24605;50.092;9.182;2023-04-05T03:25:32;98465.81;;;-1.00;76.35
38852;BME280;24605;50.092;9.182;2023-04-05T03:28:00;98464.41;;;-1.06;77.32
38852;BME280;24605;50.092;9.182;2023-04-05T03:30:27;98464.97;;;-1.01;76.09
38852;BME280;24605;50.092;9.182;2023-04-05T03:32:54;98467.13;;;-0.93;76.15
38852;BME280;24605;50.092;9.182;2023-04-05T03:35:21;98465.81;;;-1.00;76.02
38852;BME280;24605;50.092;9.182;2023-04-05T03:37:47;98453.69;;;-1.14;76.84
38852;BME280;24605;50.092;9.182;2023-04-05T03:40:14;98466.16;;;-1.06;76.93
38852;BME280;24605;50.092;9.182;2023-04-05T03:42:40;98452.69;;;-1.12;77.49
38852;BME280;24605;50.092;9.182;2023-04-05T03:45:10;98449.38;;;-1.14;77.77
38852;BME280;24605;50.092;9.182;2023-04-05T03:47:36;98426.47;;;-1.34;77.78
38852;BME280;24605;50.092;9.182;2023-04-05T03:50:04;98458.56;;;-1.26;78.43
38852;BME280;24605;50.092;9.182;2023-04-05T03:52:30;98453.09;;;-1.35;78.65
38852;BME280;24605;50.092;9.182;2023-04-05T03:54:57;98454.50;;;-1.46;79.90
38852;BME280;24605;50.092;9.182;2023-04-05T03:57:23;98453.25;;;-1.54;80.01
38852;BME280;24605;50.092;9.182;2023-04-05T03:59:49;98458.97;;;-1.49;80.38
38852;BME280;24605;50.092;9.182;2023-04-05T04:02:17;98448.59;;;-1.48;80.29
38852;BME280;24605;50.092;9.182;2023-04-05T04:04:44;98450.16;;;-1.45;80.08
38852;BME280;24605;50.092;9.182;2023-04-05T04:07:11;98451.69;;;-1.41;79.77
38852;BME280;24605;50.092;9.182;2023-04-05T04:09:38;98451.59;;;-1.39;79.48
38852;BME280;24605;50.092;9.182;2023-04-05T04:12:04;98449.19;;;-1.43;79.65
38852;BME280;24605;50.092;9.182;2023-04-05T04:14:33;98453.50;;;-1.43;79.54
38852;BME280;24605;50.092;9.182;2023-04-05T04:17:00;98455.16;;;-1.42;79.42
38852;BME280;24605;50.092;9.182;2023-04-05T04:19:27;98458.22;;;-1.51;79.39
38852;BME280;24605;50.092;9.182;2023-04-05T04:21:54;98459.13;;;-1.52;79.72
38852;BME280;24605;50.092;9.182;2023-04-05T04:24:20;98452.00;;;-1.81;82.03
38852;BME280;24605;50.092;9.182;2023-04-05T04:26:48;98454.38;;;-1.94;83.61
38852;BME280;24605;50.092;9.182;2023-04-05T04:29:14;98454.44;;;-1.95;83.79
38852;BME280;24605;50.092;9.182;2023-04-05T04:31:41;98457.75;;;-1.93;84.25
38852;BME280;24605;50.092;9.182;2023-04-05T04:34:10;98457.03;;;-1.95;83.72
38852;BME280;24605;50.092;9.182;2023-04-05T04:36:39;98390.78;;;-2.24;83.42
38852;BME280;24605;50.092;9.182;2023-04-05T04:39:09;98445.44;;;-1.86;84.01
38852;BME280;24605;50.092;9.182;2023-04-05T04:41:38;98423.97;;;-1.85;83.29
38852;BME280;24605;50.092;9.182;2023-04-05T04:44:11;98436.94;;;-1.71;83.07
38852;BME280;24605;50.092;9.182;2023-04-05T04:46:39;98440.16;;;-1.67;82.43
38852;BME280;24605;50.092;9.182;2023-04-05T04:49:07;98431.72;;;-1.69;83.16
38852;BME280;24605;50.092;9.182;2023-04-05T04:51:36;98420.69;;;-1.71;82.75
38852;BME280;24605;50.092;9.182;2023-04-05T04:54:04;98443.50;;;-1.65;82.76
38852;BME280;24605;50.092;9.182;2023-04-05T04:56:31;98441.84;;;-1.66;82.63
38852;BME280;24605;50.092;9.182;2023-04-05T04:58:58;98446.69;;;-1.60;82.23
38852;BME280;24605;50.092;9.182;2023-04-05T05:01:24;98445.91;;;-1.62;82.13
38852;BME280;24605;50.092;9.182;2023-04-05T05:03:51;98445.69;;;-1.58;82.45
38852;BME280;24605;50.092;9.182;2023-04-05T05:06:17;98453.78;;;-1.65;82.46
38852;BME280;24605;50.092;9.182;2023-04-05T05:08:46;98428.97;;;-1.82;83.03
38852;BME280;24605;50.092;9.182;2023-04-05T05:11:14;98453.53;;;-1.61;82.38
38852;BME280;24605;50.092;9.182;2023-04-05T05:13:40;98445.69;;;-1.58;81.67
38852;BME280;24605;50.092;9.182;2023-04-05T05:16:07;98457.41;;;-1.52;81.59
38852;BME280;24605;50.092;9.182;2023-04-05T05:18:34;98443.34;;;-1.62;82.09
38852;BME280;24605;50.092;9.182;2023-04-05T05:21:00;98451.97;;;-1.63;82.23
38852;BME280;24605;50.092;9.182;2023-04-05T05:23:27;98454.97;;;-1.55;81.79
38852;BME280;24605;50.092;9.182;2023-04-05T05:25:57;98448.53;;;-1.46;81.21
38852;BME280;24605;50.092;9.182;2023-04-05T05:28:25;98453.25;;;-1.38;81.23
38852;BME280;24605;50.092;9.182;2023-04-05T05:30:51;98413.56;;;-1.66;80.64
38852;BME280;24605;50.092;9.182;2023-04-05T05:33:18;98455.81;;;-1.38;80.61
38852;BME280;24605;50.092;9.182;2023-04-05T05:35:47;98447.19;;;-1.37;80.42
38852;BME280;24605;50.092;9.182;2023-04-05T05:38:13;98451.03;;;-1.29;80.31
38852;BME280;24605;50.092;9.182;2023-04-05T05:40:41;98453.44;;;-1.26;80.04
38852;BME280;24605;50.092;9.182;2023-04-05T05:43:07;98459.66;;;-1.14;79.40
38852;BME280;24605;50.092;9.182;2023-04-05T05:45:36;98452.88;;;-1.15;79.30
38852;BME280;24605;50.092;9.182;2023-04-05T05:48:03;98459.16;;;-1.04;78.43
38852;BME280;24605;50.092;9.182;2023-04-05T05:50:30;98459.81;;;-1.01;78.62
38852;BME280;24605;50.092;9.182;2023-04-05T05:52:57;98445.38;;;-1.03;78.50
38852;BME280;24605;50.092;9.182;2023-04-05T05:55:24;98451.69;;;-0.93;78.25
38852;BME280;24605;50.092;9.182;2023-04-05T05:57:50;98461.09;;;-0.92;78.06
38852;BME280;24605;50.092;9.182;2023-04-05T06:00:18;98460.19;;;-0.91;78.37
38852;BME280;24605;50.092;9.182;2023-04-05T06:02:46;98439.59;;;-0.91;77.67
38852;BME280;24605;50.092;9.182;2023-04-05T06:05:13;98461.56;;;-0.69;77.33
38852;BME280;24605;50.092;9.182;2023-04-05T06:07:40;98450.34;;;-0.68;76.29
38852;BME280;24605;50.092;9.182;2023-04-05T06:10:07;98461.44;;;-0.52;76.58
38852;BME280;24605;50.092;9.182;2023-04-05T06:12:34;98473.09;;;-0.44;75.74
38852;BME280;24605;50.092;9.182;2023-04-05T06:15:01;98452.94;;;-0.38;74.90
38852;BME280;24605;50.092;9.182;2023-04-05T06:17:27;98456.50;;;-0.24;74.37
38852;BME280;24605;50.092;9.182;2023-04-05T06:19:55;98465.66;;;-0.04;73.96
38852;BME280;24605;50.092;9.182;2023-04-05T06:22:22;98470.38;;;0.04;73.14
38852;BME280;24605;50.092;9.182;2023-04-05T06:24:49;98466.13;;;0.17;71.98
38852;BME280;24605;50.092;9.182;2023-04-05T06:27:15;98443.03;;;0.15;71.70
38852;BME280;24605;50.092;9.182;2023-04-05T06:29:42;98465.50;;;0.28;71.34
38852;BME280;24605;50.092;9.182;2023-04-05T06:32:08;98463.94;;;0.40;70.99
38852;BME280;24605;50.092;9.182;2023-04-05T06:34:34;98467.47;;;0.39;70.88
38852;BME280;24605;50.092;9.182;2023-04-05T06:37:03;98459.63;;;0.40;71.48
38852;BME280;24605;50.092;9.182;2023-04-05T06:39:30;98463.28;;;0.65;71.32
38852;BME280;24605;50.092;9.182;2023-04-05T06:41:56;98461.00;;;0.75;70.43
38852;BME280;24605;50.092;9.182;2023-04-05T06:44:23;98465.78;;;0.81;70.08
38852;BME280;24605;50.092;9.182;2023-04-05T06:46:50;98464.38;;;0.90;70.06
38852;BME280;24605;50.092;9.182;2023-04-05T06:49:16;98462.34;;;0.95;70.46
38852;BME280;24605;50.092;9.182;2023-04-05T06:51:42;98464.94;;;0.81;69.34
38852;BME280;24605;50.092;9.182;2023-04-05T06:54:10;98471.19;;;1.05;68.30
38852;BME280;24605;50.092;9.182;2023-04-05T06:56:37;98467.41;;;1.24;68.19
38852;BME280;24605;50.092;9.182;2023-04-05T06:59:03;98448.28;;;1.14;67.23
38852;BME280;24605;50.092;9.182;2023-04-05T07:01:30;98472.44;;;1.40;67.68
38852;BME280;24605;50.092;9.182;2023-04-05T07:03:57;98474.16;;;1.54;65.64
38852;BME280;24605;50.092;9.182;2023-04-05T07:06:23;98468.84;;;1.70;65.72
38852;BME280;24605;50.092;9.182;2023-04-05T07:08:50;98465.41;;;1.69;65.31
38852;BME280;24605;50.092;9.182;2023-04-05T07:11:18;98464.38;;;1.72;65.37
38852;BME280;24605;50.092;9.182;2023-04-05T07:13:45;98468.88;;;1.83;65.61
38852;BME280;24605;50.092;9.182;2023-04-05T07:16:12;98466.28;;;1.83;65.78
38852;BME280;24605;50.092;9.182;2023-04-05T07:18:38;98465.16;;;2.00;65.05
38852;BME280;24605;50.092;9.182;2023-04-05T07:21:04;98466.44;;;2.07;65.60
38852;BME280;24605;50.092;9.182;2023-04-05T07:23:31;98459.69;;;2.04;65.19
38852;BME280;24605;50.092;9.182;2023-04-05T07:26:01;98453.38;;;2.09;65.40
38852;BME280;24605;50.092;9.182;2023-04-05T07:28:31;98458.03;;;2.29;62.40
38852;BME280;24605;50.092;9.182;2023-04-05T07:30:59;98458.25;;;2.39;62.22
38852;BME280;24605;50.092;9.182;2023-04-05T07:33:26;98459.69;;;2.30;60.86
38852;BME280;24605;50.092;9.182;2023-04-05T07:35:53;98434.66;;;2.44;60.66
38852;BME280;24605;50.092;9.182;2023-04-05T07:38:21;98448.69;;;2.53;61.19
38852;BME280;24605;50.092;9.182;2023-04-05T07:40:47;98392.34;;;2.19;60.80
38852;BME280;24605;50.092;9.182;2023-04-05T07:43:15;98446.50;;;2.72;60.30
38852;BME280;24605;50.092;9.182;2023-04-05T07:45:44;98450.94;;;2.83;59.73
38852;BME280;24605;50.092;9.182;2023-04-05T07:48:10;98441.41;;;2.84;59.36
38852;BME280;24605;50.092;9.182;2023-04-05T07:50:37;98449.88;;;2.98;59.23
38852;BME280;24605;50.092;9.182;2023-04-05T07:53:06;98453.59;;;2.94;57.22
38852;BME280;24605;50.092;9.182;2023-04-05T07:55:33;98442.84;;;2.88;57.29
38852;BME280;24605;50.092;9.182;2023-04-05T07:58:02;98457.81;;;3.08;57.15
38852;BME280;24605;50.092;9.182;2023-04-05T08:00:28;98451.19;;;3.04;57.05
38852;BME280;24605;50.092;9.182;2023-04-05T08:02:56;98464.59;;;3.22;55.73
38852;BME280;24605;50.092;9.182;2023-04-05T08:05:23;98459.91;;;3.03;55.89
38852;BME280;24605;50.092;9.182;2023-04-05T08:07:49;98457.56;;;3.24;55.58
38852;BME280;24605;50.092;9.182;2023-04-05T08:10:16;98465.50;;;3.34;56.37
38852;BME280;24605;50.092;9.182;2023-04-05T08:12:42;98454.28;;;3.58;55.04
38852;BME280;24605;50.092;9.182;2023-04-05T08:15:09;98456.78;;;3.59;55.64
38852;BME280;24605;50.092;9.182;2023-04-05T08:17:36;98443.69;;;3.61;55.94
38852;BME280;24605;50.092;9.182;2023-04-05T08:20:05;98455.88;;;3.72;54.69
38852;BME280;24605;50.092;9.182;2023-04-05T08:22:32;98419.84;;;3.44;53.78
38852;BME280;24605;50.092;9.182;2023-04-05T08:24:58;98451.00;;;3.67;53.97
38852;BME280;24605;50.092;9.182;2023-04-05T08:27:25;98449.53;;;3.76;54.19
38852;BME280;24605;50.092;9.182;2023-04-05T08:29:51;98443.75;;;3.72;54.78
38852;BME280;24605;50.092;9.182;2023-04-05T08:32:18;98450.31;;;3.65;53.32
38852;BME280;24605;50.092;9.182;2023-04-05T08:34:44;98446.41;;;3.59;50.76
38852;BME280;24605;50.092;9.182;2023-04-05T08:37:12;98449.19;;;3.81;51.63
38852;BME280;24605;50.092;9.182;2023-04-05T08:39:38;98455.47;;;4.01;50.71
38852;BME280;24605;50.092;9.182;2023-04-05T08:42:10;98455.97;;;4.17;50.82
38852;BME280;24605;50.092;9.182;2023-04-05T08:44:43;98452.34;;;4.31;50.47
38852;BME280;24605;50.092;9.182;2023-04-05T08:47:10;98441.13;;;4.19;49.81
38852;BME280;24605;50.092;9.182;2023-04-05T08:49:41;98449.63;;;4.21;49.63
38852;BME280;24605;50.092;9.182;2023-04-05T08:52:08;98444.34;;;4.34;50.28
38852;BME280;24605;50.092;9.182;2023-04-05T08:54:36;98439.03;;;4.36;47.95
38852;BME280;24605;50.092;9.182;2023-04-05T08:57:03;98449.06;;;4.41;47.56
38852;BME280;24605;50.092;9.182;2023-04-05T08:59:32;98438.91;;;4.49;49.63
38852;BME280;24605;50.092;9.182;2023-04-05T09:02:03;98424.63;;;4.43;47.58
38852;BME280;24605;50.092;9.182;2023-04-05T09:04:34;98434.63;;;4.36;47.76
38852;BME280;24605;50.092;9.182;2023-04-05T09:07:05;98418.50;;;4.44;47.75
38852;BME280;24605;50.092;9.182;2023-04-05T09:09:36;98437.72;;;4.30;49.26
38852;BME280;24605;50.092;9.182;2023-04-05T09:12:03;98436.41;;;4.24;50.30
38852;BME280;24605;50.092;9.182;2023-04-05T09:14:30;98428.50;;;4.37;49.07
38852;BME280;24605;50.092;9.182;2023-04-05T09:17:01;98421.56;;;4.61;50.67
38852;BME280;24605;50.092;9.182;2023-04-05T09:19:28;98429.69;;;4.67;48.00
38852;BME280;24605;50.092;9.182;2023-04-05T09:21:59;98428.13;;;4.76;49.05
38852;BME280;24605;50.092;9.182;2023-04-05T09:24:30;98434.31;;;4.75;47.25
38852;BME280;24605;50.092;9.182;2023-04-05T09:27:04;98426.75;;;4.72;47.18
38852;BME280;24605;50.092;9.182;2023-04-05T09:29:31;98439.81;;;4.93;47.00
38852;BME280;24605;50.092;9.182;2023-04-05T09:31:59;98432.66;;;4.74;46.96
38852;BME280;24605;50.092;9.182;2023-04-05T09:34:28;98429.06;;;4.86;47.55
38852;BME280;24605;50.092;9.182;2023-04-05T09:36:55;98427.03;;;5.01;47.95
38852;BME280;24605;50.092;9.182;2023-04-05T09:39:27;98429.28;;;4.95;46.79
38852;BME280;24605;50.092;9.182;2023-04-05T09:42:06;98428.13;;;4.99;46.44
38852;BME280;24605;50.092;9.182;2023-04-05T09:44:52;98417.72;;;5.10;46.57
38852;BME280;24605;50.092;9.182;2023-04-05T09:47:20;98423.16;;;5.07;46.06
38852;BME280;24605;50.092;9.182;2023-04-05T09:49:47;98407.09;;;5.02;46.42
38852;BME280;24605;50.092;9.182;2023-04-05T09:52:21;98430.22;;;5.16;46.32
38852;BME280;24605;50.092;9.182;2023-04-05T09:54:48;98424.50;;;5.23;46.35
38852;BME280;24605;50.092;9.182;2023-04-05T09:57:17;98428.63;;;4.81;46.00
38852;BME280;24605;50.092;9.182;2023-04-05T09:59:44;98432.53;;;4.87;47.07
38852;BME280;24605;50.092;9.182;2023-04-05T10:02:11;98423.78;;;4.88;46.77
38852;BME280;24605;50.092;9.182;2023-04-05T10:04:38;98417.03;;;4.97;46.65
38852;BME280;24605;50.092;9.182;2023-04-05T10:07:06;98417.97;;;4.96;45.33
38852;BME280;24605;50.092;9.182;2023-04-05T10:09:33;98426.81;;;5.05;45.08
38852;BME280;24605;50.092;9.182;2023-04-05T10:12:00;98422.03;;;4.66;45.43
38852;BME280;24605;50.092;9.182;2023-04-05T10:14:29;98411.09;;;4.95;44.81
38852;BME280;24605;50.092;9.182;2023-04-05T10:17:00;98420.69;;;4.94;45.97
38852;BME280;24605;50.092;9.182;2023-04-05T10:19:36;98417.75;;;4.88;46.28
38852;BME280;24605;50.092;9.182;2023-04-05T10:22:13;98415.13;;;4.99;46.73
38852;BME280;24605;50.092;9.182;2023-04-05T10:24:46;98410.56;;;5.24;44.78
38852;BME280;24605;50.092;9.182;2023-04-05T10:27:17;98412.44;;;4.89;44.54
38852;BME280;24605;50.092;9.182;2023-04-05T10:29:53;98408.09;;;5.22;44.13
38852;BME280;24605;50.092;9.182;2023-04-05T10:32:29;98408.56;;;5.48;44.31
38852;BME280;24605;50.092;9.182;2023-04-05T10:35:07;98414.50;;;5.72;43.52
38852;BME280;24605;50.092;9.182;2023-04-05T10:37:40;98403.16;;;5.73;42.64
38852;BME280;24605;50.092;9.182;2023-04-05T10:40:13;98396.06;;;5.75;43.31
38852;BME280;24605;50.092;9.182;2023-04-05T10:42:41;98396.38;;;6.03;43.69
38852;BME280;24605;50.092;9.182;2023-04-05T10:45:12;98399.94;;;6.02;42.67
38852;BME280;24605;50.092;9.182;2023-04-05T10:47:43;98399.63;;;6.26;44.38
38852;BME280;24605;50.092;9.182;2023-04-05T10:50:19;98372.81;;;6.04;44.94
38852;BME280;24605;50.092;9.182;2023-04-05T10:52:47;98397.56;;;6.20;44.99
38852;BME280;24605;50.092;9.182;2023-04-05T10:55:15;98383.69;;;6.40;44.44
38852;BME280;24605;50.092;9.182;2023-04-05T10:57:42;98396.63;;;6.31;42.82
38852;BME280;24605;50.092;9.182;2023-04-05T11:00:12;98367.81;;;6.53;43.71
38852;BME280;24605;50.092;9.182;2023-04-05T11:02:40;98387.06;;;6.72;42.69
38852;BME280;24605;50.092;9.182;2023-04-05T11:05:27;98388.47;;;6.86;41.07
38852;BME280;24605;50.092;9.182;2023-04-05T11:07:59;98382.31;;;6.87;41.47
38852;BME280;24605;50.092;9.182;2023-04-05T11:10:27;98381.31;;;6.68;41.88
38852;BME280;24605;50.092;9.182;2023-04-05T11:13:07;98375.91;;;6.19;41.33
38852;BME280;24605;50.092;9.182;2023-04-05T11:15:36;98385.88;;;6.45;42.01
38852;BME280;24605;50.092;9.182;2023-04-05T11:18:04;98381.16;;;6.70;42.18
38852;BME280;24605;50.092;9.182;2023-04-05T11:20:42;98376.66;;;6.82;40.56
38852;BME280;24605;50.092;9.182;2023-04-05T11:23:09;98361.31;;;6.79;40.61
38852;BME280;24605;50.092;9.182;2023-04-05T11:25:37;98320.53;;;6.07;40.58
38852;BME280;24605;50.092;9.182;2023-04-05T11:28:04;98369.16;;;6.48;41.97
38852;BME280;24605;50.092;9.182;2023-04-05T11:30:46;98368.28;;;6.78;41.08
38852;BME280;24605;50.092;9.182;2023-04-05T11:33:38;98372.00;;;6.85;40.63
38852;BME280;24605;50.092;9.182;2023-04-05T11:36:05;98373.13;;;7.02;42.26
38852;BME280;24605;50.092;9.182;2023-04-05T11:38:31;98374.22;;;7.10;40.97
38852;BME280;24605;50.092;9.182;2023-04-05T11:41:10;98362.72;;;7.22;39.20
38852;BME280;24605;50.092;9.182;2023-04-05T11:43:37;98361.19;;;7.10;39.82
38852;BME280;24605;50.092;9.182;2023-04-05T11:46:05;98353.22;;;7.41;40.06
38852;BME280;24605;50.092;9.182;2023-04-05T11:48:31;98348.81;;;7.51;39.27
38852;BME280;24605;50.092;9.182;2023-04-05T11:50:58;98352.13;;;7.33;39.02
38852;BME280;24605;50.092;9.182;2023-04-05T11:53:25;98340.34;;;7.00;38.66
38852;BME280;24605;50.092;9.182;2023-04-05T11:55:51;98346.50;;;7.18;38.80
38852;BME280;24605;50.092;9.182;2023-04-05T11:58:21;98353.78;;;7.54;38.01
38852;BME280;24605;50.092;9.182;2023-04-05T12:00:57;98348.59;;;7.25;38.31
38852;BME280;24605;50.092;9.182;2023-04-05T12:03:26;98337.88;;;7.37;39.09
38852;BME280;24605;50.092;9.182;2023-04-05T12:05:55;98345.38;;;7.70;37.69
38852;BME280;24605;50.092;9.182;2023-04-05T12:08:22;98327.91;;;7.71;36.57
38852;BME280;24605;50.092;9.182;2023-04-05T12:10:53;98350.47;;;7.52;36.80
38852;BME280;24605;50.092;9.182;2023-04-05T12:13:25;98343.38;;;7.44;37.15
38852;BME280;24605;50.092;9.182;2023-04-05T12:15:51;98331.94;;;7.55;37.66
38852;BME280;24605;50.092;9.182;2023-04-05T12:18:18;98344.19;;;7.35;37.02
38852;BME280;24605;50.092;9.182;2023-04-05T12:20:46;98336.19;;;7.56;37.55
38852;BME280;24605;50.092;9.182;2023-04-05T12:23:13;98333.22;;;7.31;37.60
38852;BME280;24605;50.092;9.182;2023-04-05T12:25:45;98331.84;;;7.27;37.91
38852;BME280;24605;50.092;9.182;2023-04-05T12:28:11;98331.66;;;6.80;39.01
38852;BME280;24605;50.092;9.182;2023-04-05T12:30:47;98322.38;;;6.87;38.25
38852;BME280;24605;50.092;9.182;2023-04-05T12:33:14;98305.06;;;6.76;38.14
38852;BME280;24605;50.092;9.182;2023-04-05T12:35:40;98318.50;;;6.91;38.57
38852;BME280;24605;50.092;9.182;2023-04-05T12:38:08;98309.59;;;7.13;38.28
38852;BME280;24605;50.092;9.182;2023-04-05T12:40:39;98314.63;;;7.54;39.27
38852;BME280;24605;50.092;9.182;2023-04-05T12:43:07;98303.31;;;7.73;37.14
38852;BME280;24605;50.092;9.182;2023-04-05T12:45:35;98304.19;;;7.54;36.93
38852;BME280;24605;50.092;9.182;2023-04-05T12:48:07;98306.31;;;7.11;37.21
38852;BME280;24605;50.092;9.182;2023-04-05T12:50:33;98298.44;;;7.41;35.74
38852;BME280;24605;50.092;9.182;2023-04-05T12:53:04;98290.66;;;7.88;36.87
38852;BME280;24605;50.092;9.182;2023-04-05T12:55:41;98288.72;;;7.90;35.53
38852;BME280;24605;50.092;9.182;2023-04-05T12:58:08;98287.13;;;7.69;34.06
38852;BME280;24605;50.092;9.182;2023-04-05T13:00:34;98282.22;;;7.94;34.50
38852;BME280;24605;50.092;9.182;2023-04-05T13:03:01;98279.94;;;8.19;35.29
38852;BME280;24605;50.092;9.182;2023-04-05T13:05:28;98275.38;;;8.21;34.94
38852;BME280;24605;50.092;9.182;2023-04-05T13:07:55;98251.66;;;7.77;34.70
38852;BME280;24605;50.092;9.182;2023-04-05T13:10:23;98263.69;;;8.25;35.43
38852;BME280;24605;50.092;9.182;2023-04-05T13:12:51;98248.19;;;7.86;36.47
38852;BME280;24605;50.092;9.182;2023-04-05T13:15:18;98272.25;;;7.80;35.21
38852;BME280;24605;50.092;9.182;2023-04-05T13:17:45;98265.81;;;8.12;35.16